Time;durP1;ratioP1;P1;durP2;ratioP2;P2;SDS_P1;SDS_P2;PMS_P1;PMS_P2;Temp;Humidity;BMP_temperature;BMP_pressure;BME280_temperature;BME280_humidity;BME280_pressure;Samples;Min_cycle;Max_cycle;Signal;HPM_P1;HPM_P2
2021/10/06 00:00:14;;;;;;;7.33;3.80;;;;;;;6.98;79.35;102624.11;1719316;83;20960;-54
2021/10/06 00:02:42;;;;;;;8.60;4.42;;;;;;;6.97;79.56;102627.52;1719226;83;20924;-53
2021/10/06 00:05:09;;;;;;;8.18;4.40;;;;;;;6.97;79.83;102623.65;1719226;83;20951;-53
2021/10/06 00:07:37;;;;;;;8.03;4.67;;;;;;;6.96;79.97;102624.05;1692863;83;21138;-53
2021/10/06 00:10:05;;;;;;;8.35;4.62;;;;;;;6.96;80.26;102625.34;1719189;83;20901;-53
2021/10/06 00:12:32;;;;;;;15.72;4.33;;;;;;;6.97;80.42;102627.08;1679733;85;20999;-53
2021/10/06 00:14:58;;;;;;;4.33;3.98;;;;;;;6.99;80.31;102625.43;1719292;83;21038;-53
2021/10/06 00:17:24;;;;;;;5.50;4.15;;;;;;;7.05;80.40;102624.75;1719602;83;20995;-53
2021/10/06 00:19:52;;;;;;;12.20;4.30;;;;;;;7.05;80.11;102614.45;1719341;83;21136;-53
2021/10/06 00:22:21;;;;;;;7.42;4.28;;;;;;;7.04;80.21;102626.44;1719445;83;20979;-53
2021/10/06 00:24:48;;;;;;;11.10;4.03;;;;;;;7.05;80.26;102624.75;1719237;83;20913;-53
2021/10/06 00:27:14;;;;;;;29.80;4.67;;;;;;;7.03;80.25;102624.69;1719680;83;20972;-53
2021/10/06 00:29:41;;;;;;;6.55;4.45;;;;;;;6.98;80.62;102619.81;1719499;83;20900;-53
2021/10/06 00:32:07;;;;;;;5.55;4.08;;;;;;;6.94;80.72;102620.55;1719773;83;21075;-53
2021/10/06 00:34:34;;;;;;;9.43;4.28;;;;;;;6.90;80.98;102618.28;1719317;83;20979;-53
2021/10/06 00:37:01;;;;;;;5.72;4.45;;;;;;;6.93;81.19;102612.77;1719433;83;20994;-53
2021/10/06 00:39:27;;;;;;;8.68;4.08;;;;;;;6.93;81.21;102610.19;1719451;83;20893;-53
2021/10/06 00:41:53;;;;;;;8.78;4.70;;;;;;;6.95;81.47;102613.29;1719623;83;20979;-53
2021/10/06 00:44:21;;;;;;;5.35;3.98;;;;;;;6.96;81.41;102619.33;1719721;83;21109;-53
2021/10/06 00:46:48;;;;;;;6.75;3.92;;;;;;;6.97;81.30;102621.08;1719463;83;20995;-53
2021/10/06 00:49:16;;;;;;;5.17;4.35;;;;;;;6.96;81.21;102618.90;1719317;83;20940;-53
2021/10/06 00:51:42;;;;;;;8.80;4.50;;;;;;;6.95;81.23;102617.16;1719411;83;20976;-53
2021/10/06 00:54:09;;;;;;;10.65;4.10;;;;;;;6.93;81.35;102617.52;1719640;83;20987;-53
2021/10/06 00:56:35;;;;;;;12.33;3.98;;;;;;;6.89;81.35;102620.40;1719686;83;22133;-53
2021/10/06 00:59:02;;;;;;;5.20;3.72;;;;;;;6.87;81.46;102619.91;1719523;83;21568;-53
2021/10/06 01:01:30;;;;;;;5.17;3.92;;;;;;;6.82;81.63;102618.47;1719449;83;21483;-53
2021/10/06 01:03:57;;;;;;;7.75;4.60;;;;;;;6.75;81.79;102619.96;1719043;83;21000;-53
2021/10/06 01:06:24;;;;;;;6.12;4.03;;;;;;;6.70;81.96;102623.23;1719528;83;21026;-54
2021/10/06 01:08:50;;;;;;;4.50;4.00;;;;;;;6.66;82.25;102621.36;1719403;82;21189;-53
2021/10/06 01:11:16;;;;;;;5.00;3.87;;;;;;;6.60;82.37;102624.20;1719872;83;21062;-53
2021/10/06 01:13:43;;;;;;;8.93;4.87;;;;;;;6.58;82.59;102624.57;1719494;82;20964;-53
2021/10/06 01:16:10;;;;;;;7.60;4.70;;;;;;;6.52;82.92;102626.95;1719629;83;20991;-53
2021/10/06 01:18:37;;;;;;;7.20;4.17;;;;;;;6.46;83.11;102619.03;1719243;83;21032;-53
2021/10/06 01:21:15;;;;;;;5.47;4.12;;;;;;;6.43;83.20;102623.65;1719389;82;21782;-53
2021/10/06 01:23:43;;;;;;;4.55;4.15;;;;;;;6.42;83.60;102621.02;1719535;83;20952;-53
2021/10/06 01:26:10;;;;;;;10.68;4.20;;;;;;;6.40;83.87;102627.41;1719635;83;21509;-54
2021/10/06 01:28:37;;;;;;;12.60;4.78;;;;;;;6.43;84.13;102630.48;1719306;83;21443;-54
2021/10/06 01:31:03;;;;;;;6.53;4.20;;;;;;;6.50;83.97;102626.02;1719251;83;21035;-53
2021/10/06 01:33:30;;;;;;;5.75;3.70;;;;;;;6.54;83.80;102622.72;1719578;83;21109;-53
2021/10/06 01:35:57;;;;;;;7.15;4.78;;;;;;;6.58;83.60;102624.57;1719248;83;20984;-53
2021/10/06 01:38:23;;;;;;;4.95;4.40;;;;;;;6.60;83.38;102620.77;1719477;83;21039;-53
2021/10/06 01:40:50;;;;;;;4.87;4.37;;;;;;;6.61;83.20;102623.37;1719444;83;20975;-53
2021/10/06 01:43:16;;;;;;;12.60;4.47;;;;;;;6.63;83.08;102621.27;1719555;82;20944;-53
2021/10/06 01:45:43;;;;;;;7.65;5.47;;;;;;;6.61;83.16;102623.81;1719523;83;21115;-53
2021/10/06 01:48:11;;;;;;;7.20;5.28;;;;;;;6.61;83.23;102623.37;1719598;83;20944;-53
2021/10/06 01:50:41;;;;;;;6.90;4.30;;;;;;;6.60;83.15;102624.20;1719265;83;21015;-53
2021/10/06 01:53:07;;;;;;;7.37;4.75;;;;;;;6.59;83.21;102625.03;1692739;83;21501;-54
2021/10/06 01:55:34;;;;;;;7.12;4.95;;;;;;;6.58;83.27;102631.00;1719262;83;21019;-53
2021/10/06 01:58:05;;;;;;;5.58;5.08;;;;;;;6.53;83.33;102622.27;1719333;83;21024;-53
2021/10/06 02:00:32;;;;;;;5.55;4.28;;;;;;;6.53;83.62;102635.53;1719409;83;21022;-53
2021/10/06 02:02:59;;;;;;;9.63;4.15;;;;;;;6.53;83.59;102626.13;1719213;83;20963;-54
2021/10/06 02:05:25;;;;;;;8.48;4.35;;;;;;;6.55;83.61;102636.05;1719313;83;20995;-53
2021/10/06 02:07:52;;;;;;;6.20;4.62;;;;;;;6.55;83.59;102639.91;1707530;83;20968;-53
2021/10/06 02:10:19;;;;;;;10.20;4.95;;;;;;;6.50;83.67;102647.89;1705745;83;21167;-53
2021/10/06 02:12:45;;;;;;;6.30;5.40;;;;;;;6.45;83.75;102644.30;1705797;84;20929;-53
2021/10/06 02:15:12;;;;;;;10.20;4.92;;;;;;;6.43;83.85;102642.06;1705678;84;21450;-53
2021/10/06 02:17:38;;;;;;;6.28;3.75;;;;;;;6.41;84.14;102642.42;1705989;84;20933;-53
2021/10/06 02:20:06;;;;;;;7.42;4.53;;;;;;;6.39;84.26;102647.92;1705932;84;21027;-53
2021/10/06 02:22:33;;;;;;;4.83;4.37;;;;;;;6.39;84.44;102639.81;1705962;83;21778;-53
2021/10/06 02:24:59;;;;;;;10.08;4.55;;;;;;;6.40;84.35;102636.42;1706042;83;21526;-53
2021/10/06 02:27:26;;;;;;;7.65;4.10;;;;;;;6.45;84.38;102643.02;1705830;83;20980;-53
2021/10/06 02:29:52;;;;;;;11.90;4.53;;;;;;;6.43;84.31;102645.91;1706024;84;21526;-53
2021/10/06 02:32:19;;;;;;;6.17;4.90;;;;;;;6.41;84.45;102647.56;1705852;84;21083;-53
2021/10/06 02:34:45;;;;;;;5.03;4.53;;;;;;;6.33;84.59;102653.33;1685932;82;21114;-53
2021/10/06 02:37:12;;;;;;;9.98;4.30;;;;;;;6.32;84.72;102654.16;1705621;83;21522;-53
2021/10/06 02:39:38;;;;;;;4.97;3.77;;;;;;;6.35;84.72;102649.94;1706078;83;21040;-53
2021/10/06 02:42:04;;;;;;;7.83;4.62;;;;;;;6.35;84.65;102650.83;1705918;83;20953;-53
2021/10/06 02:44:31;;;;;;;10.13;5.10;;;;;;;6.29;84.66;102654.05;1706135;83;20983;-53
2021/10/06 02:46:58;;;;;;;12.95;4.17;;;;;;;6.23;84.73;102661.57;1705955;84;21498;-53
2021/10/06 02:49:25;;;;;;;15.90;4.35;;;;;;;6.12;84.91;102657.73;1706037;84;20936;-53
2021/10/06 02:51:51;;;;;;;5.92;4.25;;;;;;;6.03;85.20;102654.02;1705913;83;21550;-53
2021/10/06 02:54:18;;;;;;;7.17;3.95;;;;;;;5.98;85.42;102660.67;1705861;83;21419;-53
2021/10/06 02:56:44;;;;;;;6.53;4.58;;;;;;;5.97;85.87;102655.45;1706059;83;21020;-53
2021/10/06 02:59:11;;;;;;;6.80;4.70;;;;;;;5.94;86.11;102655.34;1705761;83;21143;-53
2021/10/06 03:01:37;;;;;;;33.55;4.72;;;;;;;5.90;86.20;102660.39;1705720;84;20964;-53
2021/10/06 03:04:04;;;;;;;7.65;4.37;;;;;;;5.86;86.38;102657.24;1705779;83;20917;-53
2021/10/06 03:06:30;;;;;;;8.45;4.40;;;;;;;5.83;86.42;102658.42;1707962;83;20972;-53
2021/10/06 03:08:57;;;;;;;5.25;4.22;;;;;;;5.79;86.66;102664.67;1719321;83;20963;-53
2021/10/06 03:11:23;;;;;;;6.45;4.80;;;;;;;5.78;87.02;102666.77;1719258;83;21019;-53
2021/10/06 03:13:49;;;;;;;6.58;4.70;;;;;;;5.75;87.03;102663.67;1719239;82;21512;-53
2021/10/06 03:16:16;;;;;;;7.15;4.00;;;;;;;5.76;87.03;102671.84;1719226;83;21011;-53
2021/10/06 03:18:42;;;;;;;4.97;3.90;;;;;;;5.77;87.04;102680.44;1719306;83;21493;-54
2021/10/06 03:21:09;;;;;;;9.55;5.22;;;;;;;5.73;87.04;102676.48;1719384;83;21074;-53
2021/10/06 03:23:35;;;;;;;5.62;4.30;;;;;;;5.69;87.10;102672.05;1719119;83;21161;-53
2021/10/06 03:26:02;;;;;;;9.40;4.62;;;;;;;5.65;87.20;102679.15;1719086;83;20975;-53
2021/10/06 03:28:28;;;;;;;9.73;4.30;;;;;;;5.60;87.23;102676.43;1719364;83;20978;-53
2021/10/06 03:30:54;;;;;;;7.60;4.35;;;;;;;5.55;87.32;102682.20;1719202;83;20944;-53
2021/10/06 03:33:21;;;;;;;5.87;4.58;;;;;;;5.53;87.44;102679.56;1719473;83;21039;-53
2021/10/06 03:35:47;;;;;;;7.50;4.15;;;;;;;5.51;87.49;102685.48;1719458;83;21141;-54
2021/10/06 03:38:13;;;;;;;8.28;4.10;;;;;;;5.48;87.47;102681.52;1692914;83;20912;-53
2021/10/06 03:40:40;;;;;;;6.75;4.37;;;;;;;5.44;87.51;102685.64;1719339;83;20970;-52
2021/10/06 03:43:06;;;;;;;5.33;4.20;;;;;;;5.43;87.81;102687.75;1692705;83;21004;-52
2021/10/06 03:45:34;;;;;;;5.70;4.70;;;;;;;5.39;87.85;102691.88;1719315;83;21038;-52
2021/10/06 03:48:01;;;;;;;6.97;3.67;;;;;;;5.32;88.06;102688.22;1692696;83;21124;-52
2021/10/06 03:50:28;;;;;;;8.30;4.12;;;;;;;5.31;88.22;102686.86;1719382;83;21513;-52
2021/10/06 03:52:54;;;;;;;9.08;4.58;;;;;;;5.26;88.87;102680.67;1719425;83;20940;-52
2021/10/06 03:55:21;;;;;;;13.00;5.37;;;;;;;5.26;88.94;102687.09;1719471;83;21071;-52
2021/10/06 03:57:47;;;;;;;14.10;5.15;;;;;;;5.27;89.13;102685.85;1692439;83;20975;-52
2021/10/06 04:00:15;;;;;;;11.70;4.78;;;;;;;5.32;89.33;102688.61;1719429;83;21111;-52
2021/10/06 04:02:42;;;;;;;13.03;4.28;;;;;;;5.34;89.24;102684.41;1719010;83;21007;-52
2021/10/06 04:05:09;;;;;;;8.00;5.35;;;;;;;5.34;89.27;102688.26;1719296;83;21501;-52
2021/10/06 04:07:35;;;;;;;12.23;5.58;;;;;;;5.34;89.37;102692.53;1683342;83;20975;-52
2021/10/06 04:10:05;;;;;;;6.55;4.35;;;;;;;5.30;89.40;102699.23;1713783;83;21007;-52
2021/10/06 04:12:32;;;;;;;9.30;4.33;;;;;;;5.27;89.43;102698.69;1685462;83;21220;-52
2021/10/06 04:14:59;;;;;;;5.05;4.55;;;;;;;5.26;89.44;102699.94;1713628;83;20944;-52
2021/10/06 04:17:25;;;;;;;7.22;4.95;;;;;;;5.23;89.67;102692.11;1713597;83;21550;-52
2021/10/06 04:19:52;;;;;;;6.70;4.70;;;;;;;5.22;89.89;102699.34;1713648;83;20893;-52
2021/10/06 04:23:09;;;;;;;11.65;4.78;;;;;;;5.24;90.06;102698.58;1815483;79;22624;-52
2021/10/06 04:25:36;;;;;;;4.35;3.95;;;;;;;5.20;90.07;102694.56;1788649;80;21010;-52
2021/10/06 04:28:04;;;;;;;8.20;4.20;;;;;;;5.22;90.05;102704.48;1788441;80;21198;-53
2021/10/06 04:30:31;;;;;;;8.40;5.03;;;;;;;5.24;90.06;102706.70;1788549;80;20936;-52
2021/10/06 04:32:57;;;;;;;7.35;4.92;;;;;;;5.21;90.23;102704.87;1788378;80;21560;-53
2021/10/06 04:35:25;;;;;;;12.70;4.90;;;;;;;5.25;90.02;102717.44;1788378;80;20912;-53
2021/10/06 04:37:52;;;;;;;6.35;4.60;;;;;;;5.26;89.86;102714.06;1788849;80;21010;-53
2021/10/06 04:40:18;;;;;;;8.33;4.47;;;;;;;5.23;89.67;102714.80;1788513;80;21162;-53
2021/10/06 04:42:46;;;;;;;9.75;4.97;;;;;;;5.21;89.62;102732.27;1788379;80;21021;-53
2021/10/06 04:45:13;;;;;;;7.10;5.17;;;;;;;5.21;89.62;102732.27;1788647;80;21537;-52
2021/10/06 04:47:40;;;;;;;11.65;4.83;;;;;;;5.19;89.46;102725.77;1788613;80;20964;-53
2021/10/06 04:50:08;;;;;;;8.50;4.90;;;;;;;5.14;89.51;102734.56;1788679;80;21010;-53
2021/10/06 04:52:36;;;;;;;7.17;4.40;;;;;;;5.13;89.50;102739.23;1788515;80;20979;-53
2021/10/06 04:55:04;;;;;;;16.55;5.60;;;;;;;5.10;89.55;102741.67;1788383;80;20911;-53
2021/10/06 04:57:30;;;;;;;8.95;5.30;;;;;;;5.08;89.16;102744.59;1788749;80;21193;-53
2021/10/06 04:59:59;;;;;;;7.47;4.55;;;;;;;5.08;89.16;102744.59;1788454;80;20928;-53
2021/10/06 05:02:25;;;;;;;9.15;5.03;;;;;;;5.08;89.59;102754.00;1788479;80;20944;-53
2021/10/06 05:04:52;;;;;;;6.78;4.80;;;;;;;5.10;89.29;102748.09;1760746;80;21845;-53
2021/10/06 05:07:18;;;;;;;10.50;6.25;;;;;;;5.11;89.10;102747.70;1759675;80;21014;-53
2021/10/06 05:09:45;;;;;;;13.80;6.70;;;;;;;5.11;89.10;102747.70;1759792;81;21528;-53
2021/10/06 05:12:11;;;;;;;11.57;6.53;;;;;;;5.25;89.12;102753.40;1729931;81;21492;-53
2021/10/06 05:14:39;;;;;;;8.78;5.08;;;;;;;5.25;89.12;102753.40;1759800;81;20916;-53
2021/10/06 05:17:06;;;;;;;15.05;5.05;;;;;;;5.32;89.22;102751.53;1730241;81;22042;-53
2021/10/06 05:19:33;;;;;;;14.13;5.67;;;;;;;5.42;88.85;102753.64;1759714;79;21517;-53
2021/10/06 05:22:02;;;;;;;15.95;5.95;;;;;;;5.57;88.50;102755.97;1754395;81;21502;-53
2021/10/06 05:24:29;;;;;;;7.28;4.83;;;;;;;5.71;88.25;102760.75;1746498;80;20945;-53
2021/10/06 05:26:55;;;;;;;15.30;4.97;;;;;;;5.92;87.72;102764.97;1746634;82;20905;-53
2021/10/06 05:29:21;;;;;;;11.08;4.97;;;;;;;6.13;86.87;102762.34;1746706;82;21762;-53
2021/10/06 05:31:48;;;;;;;7.00;4.55;;;;;;;6.31;85.60;102769.45;1725504;82;21612;-53
2021/10/06 05:34:15;;;;;;;9.90;4.50;;;;;;;6.42;84.35;102765.09;1746372;82;21628;-53
2021/10/06 05:36:41;;;;;;;10.90;4.05;;;;;;;6.44;82.35;102760.88;1746123;82;20929;-53
2021/10/06 05:39:08;;;;;;;12.58;3.80;;;;;;;6.44;81.75;102762.16;1746389;80;21013;-53
2021/10/06 05:41:34;;;;;;;9.45;4.37;;;;;;;6.50;82.00;102763.69;1745942;82;21144;-52
2021/10/06 05:44:00;;;;;;;4.55;3.98;;;;;;;6.57;81.65;102763.50;1745884;80;21525;-52
2021/10/06 05:46:27;;;;;;;4.75;4.20;;;;;;;6.59;80.81;102762.72;1725036;82;21549;-52
2021/10/06 05:48:53;;;;;;;16.27;4.22;;;;;;;6.63;80.46;102761.53;1746235;82;20997;-53
2021/10/06 05:51:20;;;;;;;7.72;3.65;;;;;;;6.67;79.48;102765.56;1746277;82;21526;-52
2021/10/06 05:53:47;;;;;;;6.45;3.92;;;;;;;6.71;78.84;102763.98;1746474;82;21092;-53
2021/10/06 05:56:13;;;;;;;12.20;3.80;;;;;;;6.75;79.24;102766.70;1746073;80;21497;-52
2021/10/06 05:58:40;;;;;;;10.25;4.15;;;;;;;6.82;78.68;102769.47;1724983;82;21467;-52
2021/10/06 06:01:06;;;;;;;9.90;3.92;;;;;;;6.85;78.33;102770.89;1746105;82;21553;-52
2021/10/06 06:03:33;;;;;;;8.68;3.52;;;;;;;6.91;77.72;102767.23;1746104;82;21007;-52
2021/10/06 06:05:59;;;;;;;11.35;3.58;;;;;;;6.94;77.61;102768.62;1724648;82;21066;-53
2021/10/06 06:08:26;;;;;;;9.48;3.60;;;;;;;6.99;77.67;102772.64;1745941;82;20929;-53
2021/10/06 06:10:52;;;;;;;57.70;5.03;;;;;;;7.05;77.35;102772.41;1746176;82;21003;-52
2021/10/06 06:13:19;;;;;;;9.73;4.00;;;;;;;7.12;77.63;102772.21;1746135;82;20971;-52
2021/10/06 06:15:51;;;;;;;8.53;3.33;;;;;;;7.23;76.83;102772.99;1746039;81;21474;-52
2021/10/06 06:18:15;;;;;;;6.58;3.33;;;;;;;7.34;74.80;102772.91;1745791;82;21107;-53
2021/10/06 06:20:41;;;;;;;8.75;3.60;;;;;;;7.45;72.82;102778.41;1746240;81;20982;-53
2021/10/06 06:23:08;;;;;;;5.83;3.80;;;;;;;7.51;72.61;102775.16;1724697;82;21011;-53
2021/10/06 06:25:35;;;;;;;3.87;2.98;;;;;;;7.57;72.53;102776.63;1724836;82;20901;-53
2021/10/06 06:28:01;;;;;;;7.78;3.35;;;;;;;7.65;71.77;102779.02;1746052;80;20905;-52
2021/10/06 06:30:28;;;;;;;6.90;3.37;;;;;;;7.75;71.84;102778.90;1745886;82;21219;-53
2021/10/06 06:32:55;;;;;;;3.75;3.22;;;;;;;7.87;69.95;102774.52;1746042;82;20960;-53
2021/10/06 06:35:22;;;;;;;7.72;3.42;;;;;;;7.95;70.18;102771.75;1724579;82;21003;-52
2021/10/06 06:37:48;;;;;;;10.82;2.95;;;;;;;8.04;69.19;102757.85;1745965;82;21545;-53
2021/10/06 06:40:15;;;;;;;5.67;3.30;;;;;;;8.11;67.95;102756.73;1746018;82;21544;-53
2021/10/06 06:42:42;;;;;;;6.00;3.10;;;;;;;8.18;67.35;102758.64;1745964;81;21919;-53
2021/10/06 06:45:08;;;;;;;9.68;3.30;;;;;;;8.25;67.16;102759.30;1746216;81;21047;-53
2021/10/06 06:47:36;;;;;;;4.47;2.83;;;;;;;8.32;64.59;102759.92;1746054;82;21494;-52
2021/10/06 06:50:05;;;;;;;6.03;2.50;;;;;;;8.40;65.80;102755.37;1746039;81;20968;-53
2021/10/06 06:52:32;;;;;;;15.80;3.70;;;;;;;8.46;65.47;102753.84;1724687;82;21502;-53
2021/10/06 06:54:58;;;;;;;14.95;3.10;;;;;;;8.57;65.74;102755.86;1745952;81;21058;-53
2021/10/06 06:57:25;;;;;;;5.47;2.75;;;;;;;8.71;64.54;102758.80;1724652;82;20968;-53
2021/10/06 06:59:51;;;;;;;4.25;2.10;;;;;;;8.80;61.64;102751.72;1746096;82;20967;-53
2021/10/06 07:02:18;;;;;;;5.33;2.22;;;;;;;8.91;60.04;102757.61;1745936;80;21497;-54
2021/10/06 07:04:44;;;;;;;7.83;2.80;;;;;;;9.00;58.72;102747.08;1745940;82;20971;-53
2021/10/06 07:07:14;;;;;;;5.72;2.17;;;;;;;9.09;57.26;102715.39;1746097;82;21154;-52
2021/10/06 07:09:47;;;;;;;3.47;2.02;;;;;;;9.19;54.89;102744.52;1746321;82;21565;-52
2021/10/06 07:12:07;;;;;;;6.72;2.17;;;;;;;9.22;55.15;102757.50;1745098;82;20976;-52
2021/10/06 07:14:34;;;;;;;10.50;2.42;;;;;;;9.27;55.92;102749.44;1745997;82;21544;-52
2021/10/06 07:17:00;;;;;;;2.30;2.10;;;;;;;9.36;55.47;102744.91;1746004;81;20971;-52
2021/10/06 07:19:27;;;;;;;4.62;2.40;;;;;;;9.45;56.69;102759.76;1745916;82;22345;-52
2021/10/06 07:21:53;;;;;;;5.35;2.15;;;;;;;9.58;53.32;102728.59;1746192;80;21502;-52
2021/10/06 07:24:20;;;;;;;10.72;2.58;;;;;;;9.63;53.05;102740.79;1748636;82;21028;-52
2021/10/06 07:26:46;;;;;;;4.53;2.05;;;;;;;9.71;52.63;102743.95;1748997;82;20967;-52
2021/10/06 07:29:13;;;;;;;4.10;2.58;;;;;;;9.81;52.35;102733.39;1748710;82;20974;-52
2021/10/06 07:31:39;;;;;;;8.78;2.20;;;;;;;9.91;51.03;102733.62;1748666;81;21139;-52
2021/10/06 07:34:06;;;;;;;6.35;1.60;;;;;;;10.01;50.74;102735.98;1748421;82;22138;-52
2021/10/06 07:36:33;;;;;;;7.45;2.10;;;;;;;10.11;50.66;102741.32;1748694;82;20928;-52
2021/10/06 07:39:00;;;;;;;2.95;2.00;;;;;;;10.20;48.37;102732.44;1748632;82;20893;-52
2021/10/06 07:41:27;;;;;;;7.33;2.15;;;;;;;10.26;47.45;102729.98;1748548;82;21502;-52
2021/10/06 07:43:55;;;;;;;7.25;2.08;;;;;;;10.31;45.31;102723.17;1721284;82;21400;-52
2021/10/06 07:46:21;;;;;;;3.33;1.60;;;;;;;10.25;45.76;102723.06;1748662;82;20940;-52
2021/10/06 07:48:48;;;;;;;2.55;1.77;;;;;;;10.29;45.89;102727.86;1748649;82;21029;-52
2021/10/06 07:51:14;;;;;;;9.60;1.98;;;;;;;10.37;45.33;102715.06;1748681;82;20936;-53
2021/10/06 07:53:41;;;;;;;6.05;2.15;;;;;;;10.45;45.63;102732.93;1748576;82;20889;-53
2021/10/06 07:56:09;;;;;;;9.15;1.80;;;;;;;10.55;45.47;102730.09;1748413;82;21904;-53
2021/10/06 07:58:36;;;;;;;3.47;1.82;;;;;;;10.69;45.83;102727.34;1720995;82;21529;-52
2021/10/06 08:01:03;;;;;;;1.80;1.70;;;;;;;10.82;46.36;102719.34;1748687;82;20912;-53
2021/10/06 08:03:30;;;;;;;6.92;1.47;;;;;;;11.00;45.72;102728.28;1748573;82;20980;-53
2021/10/06 08:05:57;;;;;;;5.42;1.80;;;;;;;11.15;42.94;102718.13;1748711;82;20932;-52
2021/10/06 08:08:26;;;;;;;2.58;1.70;;;;;;;11.15;43.92;102722.46;1720974;82;21229;-52
2021/10/06 08:10:55;;;;;;;5.08;1.80;;;;;;;11.20;41.93;102722.95;1748780;82;21046;-53
2021/10/06 08:13:22;;;;;;;4.90;2.05;;;;;;;11.09;42.68;102723.23;1747973;82;20944;-53
2021/10/06 08:15:50;;;;;;;7.67;2.08;;;;;;;11.07;43.37;102714.56;1748552;81;21071;-52
2021/10/06 08:18:16;;;;;;;4.40;1.67;;;;;;;11.15;44.06;102709.06;1748456;82;20960;-53
2021/10/06 08:20:44;;;;;;;10.95;2.22;;;;;;;11.26;43.81;102708.37;1748662;82;21239;-53
2021/10/06 08:23:10;;;;;;;10.30;1.67;;;;;;;11.39;43.79;102699.05;1747011;80;21023;-53
2021/10/06 08:25:37;;;;;;;3.55;1.60;;;;;;;11.62;42.25;102700.64;1745905;82;22471;-51
2021/10/06 08:28:04;;;;;;;4.20;1.67;;;;;;;11.64;40.96;102701.52;1745984;82;21474;-54
2021/10/06 08:30:31;;;;;;;6.03;2.02;;;;;;;11.64;42.83;102702.41;1745977;82;20928;-53
2021/10/06 08:32:57;;;;;;;7.35;2.52;;;;;;;11.83;42.02;102703.06;1746022;82;22010;-53
2021/10/06 08:35:24;;;;;;;7.08;2.30;;;;;;;11.90;38.59;102699.67;1745878;82;21143;-53
2021/10/06 08:37:50;;;;;;;9.30;2.40;;;;;;;11.75;39.18;102694.77;1745975;82;20983;-54
2021/10/06 08:40:16;;;;;;;4.03;2.02;;;;;;;11.77;40.02;102697.36;1745804;82;20963;-54
2021/10/06 08:42:43;;;;;;;10.53;1.80;;;;;;;11.96;39.19;102685.47;1745962;82;21030;-54
2021/10/06 08:45:10;;;;;;;9.70;1.87;;;;;;;11.89;39.70;102682.36;1746093;82;21124;-53
2021/10/06 08:47:39;;;;;;;13.20;2.98;;;;;;;11.83;38.64;102689.64;1745886;81;21541;-54
2021/10/06 08:50:09;;;;;;;11.53;2.50;;;;;;;11.77;38.83;102691.77;1745880;80;20920;-51
2021/10/06 08:52:35;;;;;;;4.85;1.60;;;;;;;11.73;38.81;102692.55;1746220;81;21056;-51
2021/10/06 08:55:05;;;;;;;7.00;2.05;;;;;;;11.79;40.41;102695.24;1745924;82;20952;-54
2021/10/06 08:57:33;;;;;;;12.07;1.90;;;;;;;12.10;38.01;102681.75;1724941;82;21018;-52
2021/10/06 08:59:59;;;;;;;15.70;1.62;;;;;;;12.18;38.72;102680.55;1745811;82;20944;-52
2021/10/06 09:02:26;;;;;;;8.75;1.50;;;;;;;12.17;37.37;102676.20;1746312;82;21027;-52
2021/10/06 09:04:52;;;;;;;8.85;1.57;;;;;;;12.19;36.99;102661.10;1745973;82;21027;-52
2021/10/06 09:07:19;;;;;;;10.58;1.80;;;;;;;12.03;37.12;102670.46;1701071;82;21015;-52
2021/10/06 09:09:47;;;;;;;5.55;1.70;;;;;;;12.01;38.49;102680.37;1746095;82;21142;-52
2021/10/06 09:12:17;;;;;;;17.00;1.90;;;;;;;12.03;36.92;102676.06;1746142;80;21015;-52
2021/10/06 09:14:48;;;;;;;5.97;1.47;;;;;;;12.16;37.91;102671.88;1746485;82;20924;-52
2021/10/06 09:17:17;;;;;;;10.80;1.75;;;;;;;12.43;37.60;102671.69;1746027;82;20932;-53
2021/10/06 09:19:57;;;;;;;13.45;1.40;;;;;;;12.57;35.85;102656.22;1746082;82;21071;-53
2021/10/06 09:22:32;;;;;;;3.17;1.45;;;;;;;12.44;36.20;102664.34;1724923;81;20991;-53
2021/10/06 09:25:06;;;;;;;7.33;1.90;;;;;;;12.38;35.99;102659.09;1748928;81;21006;-52
2021/10/06 09:27:36;;;;;;;;;;;;;;;12.28;37.18;102662.92;1723833;82;21026;-52
2021/10/06 09:30:07;;;;;;;8.20;2.37;;;;;;;12.39;36.85;102655.64;1721217;82;20199;-52
2021/10/06 09:32:38;;;;;;;5.35;2.20;;;;;;;12.40;37.32;102658.69;1748658;81;21519;-52
2021/10/06 09:35:10;;;;;;;13.70;1.70;;;;;;;12.53;37.48;102654.05;1748640;82;21066;-52
2021/10/06 09:37:39;;;;;;;32.28;3.55;;;;;;;12.65;35.88;102655.44;1748698;82;21656;-53
2021/10/06 09:40:09;;;;;;;10.00;3.08;;;;;;;12.74;35.66;102653.34;1748823;82;21462;-53
2021/10/06 09:42:54;;;;;;;9.28;2.05;;;;;;;12.75;34.83;102650.30;1721844;82;20936;-53
2021/10/06 09:45:35;;;;;;;12.35;2.60;;;;;;;12.56;35.52;102646.28;1747196;82;20956;-52
2021/10/06 09:48:11;;;;;;;5.80;2.12;;;;;;;12.57;36.45;102653.22;1748584;81;21670;-52
2021/10/06 09:50:47;;;;;;;12.65;2.92;;;;;;;12.75;37.52;102654.20;1748720;81;20877;-52
2021/10/06 09:53:20;;;;;;;10.53;3.20;;;;;;;13.04;35.45;102631.01;1748699;82;21019;-52
2021/10/06 09:55:52;;;;;;;16.17;3.50;;;;;;;13.19;34.99;102644.52;1748208;82;20885;-53
2021/10/06 09:58:19;;;;;;;13.85;3.25;;;;;;;13.08;34.38;102651.41;1748637;82;21007;-52
2021/10/06 10:00:48;;;;;;;4.72;2.60;;;;;;;12.94;35.43;102649.58;1748672;82;21146;-53
2021/10/06 10:03:15;;;;;;;16.00;2.70;;;;;;;13.05;34.66;102648.79;1748668;82;21610;-53
2021/10/06 10:05:42;;;;;;;5.25;1.85;;;;;;;13.18;35.14;102645.38;1748794;82;21482;-53
2021/10/06 10:08:10;;;;;;;8.08;1.52;;;;;;;13.21;34.14;102642.80;1748564;82;20932;-52
2021/10/06 10:10:37;;;;;;;9.98;1.72;;;;;;;13.08;35.33;102639.70;1748911;81;21549;-52
2021/10/06 10:13:06;;;;;;;2.95;1.62;;;;;;;13.20;34.75;102635.86;1748634;81;20952;-52
2021/10/06 10:15:32;;;;;;;10.88;1.65;;;;;;;13.34;34.33;102628.12;1748851;82;20963;-53
2021/10/06 10:18:04;;;;;;;7.45;1.30;;;;;;;13.37;33.71;102642.44;1748924;82;21048;-52
2021/10/06 10:20:34;;;;;;;8.15;1.32;;;;;;;13.21;34.19;102641.50;1748527;82;21719;-52
2021/10/06 10:23:03;;;;;;;10.28;1.90;;;;;;;13.31;35.41;102642.42;1748096;81;21415;-53
2021/10/06 10:25:31;;;;;;;2.45;1.37;;;;;;;13.46;34.22;102634.29;1745979;82;21124;-53
2021/10/06 10:28:21;;;;;;;16.97;2.05;;;;;;;13.52;33.54;102625.65;1745867;82;20913;-52
2021/10/06 10:30:59;;;;;;;6.35;3.25;;;;;;;13.52;33.89;102630.86;1725257;82;21478;-53
2021/10/06 10:33:49;;;;;;;8.15;2.12;;;;;;;13.42;34.48;102637.27;1745456;82;20971;-53
2021/10/06 10:36:39;;;;;;;4.35;1.95;;;;;;;13.47;34.15;102635.58;1746794;80;21037;-53
2021/10/06 10:39:13;;;;;;;7.80;1.70;;;;;;;13.56;34.08;102630.85;1745943;82;21162;-53
2021/10/06 10:41:50;;;;;;;3.50;1.45;;;;;;;13.67;34.12;102626.98;1721849;82;21001;-53
2021/10/06 10:44:25;;;;;;;10.72;1.77;;;;;;;13.57;33.05;102631.73;1745436;82;21620;-53
2021/10/06 10:46:59;;;;;;;11.03;2.02;;;;;;;13.38;33.77;102619.91;1723084;82;20980;-53
2021/10/06 10:49:36;;;;;;;13.58;1.95;;;;;;;13.40;33.22;102623.84;1749939;81;21723;-52
2021/10/06 10:52:02;;;;;;;8.25;1.95;;;;;;;13.22;34.24;102638.03;1734064;82;21175;-52
2021/10/06 10:54:38;;;;;;;11.95;2.02;;;;;;;13.27;33.55;102622.91;1746208;82;20924;-52
2021/10/06 10:57:25;;;;;;;8.70;1.70;;;;;;;13.32;33.58;102630.30;1746086;82;20901;-53
2021/10/06 10:59:54;;;;;;;8.33;1.80;;;;;;;13.29;34.06;102628.53;1746392;82;21003;-52
2021/10/06 11:02:30;;;;;;;9.35;1.70;;;;;;;13.45;33.70;102613.05;1745899;80;20952;-52
2021/10/06 11:04:59;;;;;;;7.85;1.55;;;;;;;13.45;32.32;102627.35;1745972;80;21152;-52
2021/10/06 11:07:26;;;;;;;8.30;1.77;;;;;;;13.38;34.52;102616.02;1745830;81;21022;-53
2021/10/06 11:10:06;;;;;;;4.78;1.67;;;;;;;13.54;32.66;102615.67;1746317;82;20937;-53
2021/10/06 11:12:33;;;;;;;11.12;1.92;;;;;;;13.52;32.13;102611.34;1724799;82;21003;-53
2021/10/06 11:15:15;;;;;;;11.18;1.62;;;;;;;13.33;33.63;102615.12;1746152;81;21505;-53
2021/10/06 11:18:26;;;;;;;32.00;2.65;;;;;;;13.35;32.10;102619.45;1745470;82;21162;-53
2021/10/06 11:21:00;;;;;;;7.45;1.70;;;;;;;13.35;31.82;102609.50;1746060;81;21660;-54
2021/10/06 11:23:36;;;;;;;4.57;2.17;;;;;;;13.38;33.60;102614.70;1746809;81;20976;-53
2021/10/06 11:26:10;;;;;;;6.67;1.60;;;;;;;13.63;32.95;102610.48;1748938;82;21007;-53
2021/10/06 11:28:38;;;;;;;16.62;1.50;;;;;;;13.76;32.01;102606.63;1748687;82;21541;-53
2021/10/06 11:31:05;;;;;;;20.08;1.72;;;;;;;13.75;31.94;102606.19;1748547;81;21142;-53
2021/10/06 11:33:33;;;;;;;9.73;1.60;;;;;;;13.82;32.10;102600.58;1748608;82;21046;-53